createdAt,value
2023-03-30T00:00:28.859Z,5.54
2023-03-30T00:05:31.288Z,5.47
2023-03-30T00:10:33.168Z,5.40
2023-03-30T00:15:34.892Z,5.35
2023-03-30T00:20:43.124Z,5.29
2023-03-30T00:25:45.787Z,5.27
2023-03-30T00:30:48.573Z,5.27
2023-03-30T00:35:55.261Z,5.31
2023-03-30T00:41:00.901Z,5.38
2023-03-30T00:46:02.801Z,5.48
2023-03-30T00:51:07.559Z,5.52
2023-03-30T00:56:12.993Z,5.53
2023-03-30T01:01:25.599Z,5.51
2023-03-30T01:06:31.664Z,5.48
2023-03-30T01:11:33.532Z,5.44
2023-03-30T01:16:54.196Z,5.39
2023-03-30T01:22:29.820Z,5.34
2023-03-30T01:27:40.306Z,5.26
2023-03-30T01:33:19.912Z,5.16
2023-03-30T01:38:42.085Z,5.11
2023-03-30T01:43:56.764Z,5.09
2023-03-30T01:49:12.492Z,5.11
2023-03-30T01:54:21.996Z,5.21
2023-03-30T01:59:34.590Z,5.33
2023-03-30T02:04:40.639Z,5.41
2023-03-30T02:09:45.808Z,5.47
2023-03-30T02:14:49.531Z,5.50
2023-03-30T02:19:52.545Z,5.43
2023-03-30T02:24:56.618Z,5.50
2023-03-30T02:29:58.352Z,5.48
2023-03-30T02:35:19.971Z,5.45
2023-03-30T02:40:51.361Z,5.41
2023-03-30T02:46:22.052Z,5.34
2023-03-30T02:51:41.718Z,5.27
2023-03-30T02:57:17.215Z,5.17
2023-03-30T03:02:29.982Z,5.10
2023-03-30T03:07:40.697Z,5.10
2023-03-30T03:12:44.987Z,5.11
2023-03-30T03:17:47.527Z,5.14
2023-03-30T03:22:49.990Z,5.22
2023-03-30T03:27:51.921Z,5.29
2023-03-30T03:32:57.402Z,5.38
2023-03-30T03:38:00.236Z,5.42
2023-03-30T03:43:02.073Z,5.45
2023-03-30T03:48:04.181Z,5.45
2023-03-30T03:53:13.295Z,5.45
2023-03-30T03:58:16.084Z,5.43
2023-03-30T04:03:17.863Z,5.41
2023-03-30T04:08:19.710Z,5.38
2023-03-30T04:13:21.711Z,5.36
2023-03-30T04:18:23.355Z,5.34
2023-03-30T04:23:49.295Z,5.31
2023-03-30T04:28:54.363Z,5.28
2023-03-30T04:34:16.765Z,5.14
2023-03-30T04:39:30.468Z,5.27
2023-03-30T04:44:38.296Z,5.27
2023-03-30T04:50:08.007Z,5.29
2023-03-30T04:55:28.613Z,5.37
2023-03-30T05:00:56.140Z,5.34
2023-03-30T05:06:17.316Z,5.61
2023-03-30T05:11:30.878Z,5.69
2023-03-30T05:16:40.588Z,5.60
2023-03-30T05:22:01.540Z,5.80
2023-03-30T05:27:21.609Z,5.87
2023-03-30T05:32:43.665Z,6.00
2023-03-30T05:37:45.892Z,6.14
2023-03-30T05:42:56.904Z,6.37
2023-03-30T05:48:17.624Z,6.57
2023-03-30T05:53:37.854Z,6.70
2023-03-30T05:58:59.807Z,6.81
2023-03-30T06:04:31.517Z,6.99
2023-03-30T06:09:35.063Z,7.25
2023-03-30T06:14:41.423Z,7.58
2023-03-30T06:19:58.884Z,7.83
2023-03-30T06:25:02.021Z,8.18
2023-03-30T06:30:04.970Z,8.41
2023-03-30T06:35:07.645Z,8.50
2023-03-30T06:40:16.123Z,8.59
2023-03-30T06:45:21.056Z,8.76
2023-03-30T06:50:23.261Z,8.84
2023-03-30T06:55:33.141Z,8.99
2023-03-30T07:00:36.016Z,9.18
2023-03-30T07:05:58.682Z,9.36
2023-03-30T07:11:09.420Z,9.49
2023-03-30T07:16:13.782Z,9.57
2023-03-30T07:21:16.110Z,9.62
2023-03-30T07:26:18.104Z,9.66
2023-03-30T07:31:29.591Z,9.67
2023-03-30T07:36:32.053Z,9.72
2023-03-30T07:41:34.669Z,9.90
2023-03-30T07:46:36.874Z,10.21
2023-03-30T07:51:39.695Z,10.63
2023-03-30T07:56:53.735Z,11.18
2023-03-30T08:01:56.236Z,11.86
2023-03-30T08:07:18.666Z,12.54
2023-03-30T08:12:21.941Z,12.86
2023-03-30T08:17:23.966Z,13.02
2023-03-30T08:22:25.920Z,13.21
2023-03-30T08:27:27.846Z,13.28
2023-03-30T08:32:29.674Z,13.47
2023-03-30T08:37:31.475Z,13.73
2023-03-30T08:42:50.741Z,13.88
2023-03-30T08:47:54.228Z,14.02
2023-03-30T08:52:56.156Z,14.03
2023-03-30T08:58:09.811Z,13.82
2023-03-30T09:03:22.929Z,13.59
2023-03-30T09:08:29.265Z,13.47
2023-03-30T09:13:37.992Z,13.41
2023-03-30T09:18:42.863Z,13.46
2023-03-30T09:23:44.653Z,13.41
2023-03-30T09:29:01.178Z,13.18
2023-03-30T09:34:08.693Z,13.01
2023-03-30T09:39:19.931Z,13.01
2023-03-30T09:44:33.821Z,13.00
2023-03-30T09:49:39.262Z,13.12
2023-03-30T09:54:41.811Z,13.37
2023-03-30T09:59:45.649Z,13.58
2023-03-30T10:04:53.630Z,13.78
2023-03-30T10:09:58.724Z,13.79
2023-03-30T10:15:04.349Z,13.87
2023-03-30T10:20:30.835Z,13.98
2023-03-30T10:25:33.903Z,14.17
2023-03-30T10:30:36.537Z,14.64
2023-03-30T10:35:38.816Z,14.95
2023-03-30T10:40:42.788Z,15.13
2023-03-30T10:45:48.607Z,15.54
2023-03-30T10:51:27.644Z,15.81
2023-03-30T10:56:38.090Z,15.92
2023-03-30T11:01:51.994Z,16.14
2023-03-30T11:06:57.960Z,16.30
2023-03-30T11:12:12.538Z,16.37
2023-03-30T11:17:26.821Z,16.00
2023-03-30T11:22:52.432Z,15.59
2023-03-30T11:28:12.137Z,15.44
2023-03-30T11:33:36.545Z,15.43
2023-03-30T11:38:51.964Z,15.35
2023-03-30T11:43:56.117Z,15.35
2023-03-30T11:49:08.255Z,15.47
2023-03-30T11:54:31.566Z,15.64
2023-03-30T11:59:43.931Z,15.85
2023-03-30T12:05:16.338Z,15.86
2023-03-30T12:10:32.351Z,15.84
2023-03-30T12:15:44.896Z,15.85
2023-03-30T12:21:16.289Z,15.64
2023-03-30T12:26:23.790Z,15.32
2023-03-30T12:31:51.714Z,15.06
2023-03-30T12:36:58.125Z,15.14
2023-03-30T12:42:07.857Z,15.05
2023-03-30T12:47:25.843Z,15.00
2023-03-30T12:52:27.566Z,14.96
2023-03-30T12:57:54.021Z,14.84
2023-03-30T13:03:07.832Z,14.68
2023-03-30T13:08:35.019Z,14.48
2023-03-30T13:13:50.983Z,14.21
2023-03-30T13:18:55.579Z,13.95
2023-03-30T13:24:26.291Z,13.71
2023-03-30T13:29:30.959Z,13.54
2023-03-30T13:35:06.980Z,13.39
2023-03-30T13:40:39.710Z,13.31
2023-03-30T13:46:13.062Z,13.30
2023-03-30T13:51:21.114Z,13.32
2023-03-30T13:56:25.922Z,13.21
2023-03-30T14:01:28.423Z,13.34
2023-03-30T14:06:34.376Z,13.24
2023-03-30T14:11:44.877Z,13.15
2023-03-30T14:16:46.913Z,12.89
2023-03-30T14:21:49.456Z,12.62
2023-03-30T14:26:51.139Z,12.35
2023-03-30T14:32:06.674Z,12.20
2023-03-30T14:37:11.667Z,12.17
2023-03-30T14:42:17.611Z,12.15
2023-03-30T14:47:22.731Z,12.14
2023-03-30T14:52:32.743Z,12.10
2023-03-30T14:57:40.421Z,11.92
2023-03-30T15:02:43.070Z,11.85
2023-03-30T15:07:53.058Z,11.82
2023-03-30T15:12:57.023Z,11.75
2023-03-30T15:17:59.905Z,11.62
2023-03-30T15:23:02.102Z,11.44
2023-03-30T15:28:08.168Z,11.23
2023-03-30T15:33:37.280Z,11.07
2023-03-30T15:38:51.450Z,10.95
2023-03-30T15:43:59.105Z,10.84
2023-03-30T15:49:01.025Z,10.69
2023-03-30T15:54:13.705Z,10.54
2023-03-30T15:59:18.727Z,10.40
2023-03-30T16:04:22.870Z,10.30
2023-03-30T16:09:24.983Z,10.17
2023-03-30T16:14:26.922Z,10.02
2023-03-30T16:19:28.636Z,9.89
2023-03-30T16:24:30.532Z,9.80
2023-03-30T16:29:45.651Z,9.80
2023-03-30T16:34:48.486Z,9.79
2023-03-30T16:39:50.288Z,9.73
2023-03-30T16:44:51.981Z,9.66
2023-03-30T16:49:54.083Z,9.59
2023-03-30T16:54:55.854Z,9.51
2023-03-30T16:59:57.553Z,9.40
2023-03-30T17:04:59.342Z,9.34
2023-03-30T17:10:01.373Z,9.31
2023-03-30T17:15:03.654Z,9.32
2023-03-30T17:20:23.760Z,9.34
2023-03-30T17:25:26.724Z,9.20
2023-03-30T17:30:31.187Z,9.33
2023-03-30T17:35:33.026Z,9.35
2023-03-30T17:40:39.309Z,9.35
2023-03-30T17:45:41.981Z,9.34
2023-03-30T17:50:46.894Z,9.35
2023-03-30T17:55:52.454Z,9.38
2023-03-30T18:00:54.570Z,9.40
2023-03-30T18:05:58.733Z,9.43
2023-03-30T18:11:01.454Z,9.42
2023-03-30T18:16:03.176Z,9.42
2023-03-30T18:21:06.782Z,9.43
2023-03-30T18:26:12.901Z,9.44
2023-03-30T18:31:14.909Z,9.45
2023-03-30T18:36:18.702Z,9.46
2023-03-30T18:41:20.582Z,9.47
2023-03-30T18:46:22.526Z,9.50
2023-03-30T18:51:24.521Z,9.49
2023-03-30T18:56:27.424Z,9.44
2023-03-30T19:01:29.221Z,9.43
2023-03-30T19:06:31.142Z,9.41
2023-03-30T19:11:32.871Z,9.40
2023-03-30T19:16:35.065Z,9.39
2023-03-30T19:21:36.956Z,9.34
2023-03-30T19:26:38.971Z,9.29
2023-03-30T19:31:40.798Z,9.28
2023-03-30T19:36:42.620Z,9.27
2023-03-30T19:41:44.437Z,9.23
2023-03-30T19:46:46.145Z,9.19
2023-03-30T19:51:47.969Z,9.15
2023-03-30T19:56:49.856Z,9.12
2023-03-30T20:01:51.673Z,9.09
2023-03-30T20:06:53.909Z,9.05
2023-03-30T20:11:56.709Z,9.02
2023-03-30T20:17:00.407Z,8.99
2023-03-30T20:22:02.372Z,8.92
2023-03-30T20:27:04.062Z,8.82
2023-03-30T20:32:05.881Z,8.74
2023-03-30T20:37:07.698Z,8.70
2023-03-30T20:42:09.987Z,8.71
2023-03-30T20:47:11.660Z,8.73
2023-03-30T20:52:13.800Z,8.71
2023-03-30T20:57:15.562Z,8.70
2023-03-30T21:02:17.615Z,8.69
2023-03-30T21:07:19.793Z,8.68
2023-03-30T21:12:22.618Z,8.64
2023-03-30T21:17:24.773Z,8.58
2023-03-30T21:22:26.630Z,8.57
2023-03-30T21:27:28.489Z,8.63
2023-03-30T21:32:31.581Z,8.72
2023-03-30T21:37:33.438Z,8.79
2023-03-30T21:42:36.393Z,8.80
2023-03-30T21:47:40.151Z,8.82
2023-03-30T21:52:44.758Z,8.88
2023-03-30T21:57:46.429Z,8.94
2023-03-30T22:02:48.243Z,8.99
2023-03-30T22:07:50.317Z,9.03
2023-03-30T22:12:52.074Z,9.08
2023-03-30T22:17:53.850Z,9.12
2023-03-30T22:22:56.827Z,9.13
2023-03-30T22:28:01.176Z,9.08
2023-03-30T22:33:03.069Z,9.01
2023-03-30T22:38:06.427Z,8.98
2023-03-30T22:43:09.725Z,8.99
2023-03-30T22:48:11.583Z,8.95
2023-03-30T22:53:13.283Z,8.90
2023-03-30T22:58:15.946Z,8.89
2023-03-30T23:03:18.074Z,8.91
2023-03-30T23:08:20.264Z,8.96
2023-03-30T23:13:29.365Z,8.99
2023-03-30T23:18:31.273Z,8.99
2023-03-30T23:23:37.158Z,9.00
2023-03-30T23:28:41.517Z,9.02
2023-03-30T23:33:46.479Z,9.06
2023-03-30T23:38:48.521Z,9.02
2023-03-30T23:43:51.632Z,8.89
2023-03-30T23:48:59.158Z,8.73
2023-03-30T23:54:07.155Z,8.59
2023-03-30T23:59:10.881Z,8.46
